Time;durP1;ratioP1;P1;durP2;ratioP2;P2;SDS_P1;SDS_P2;PMS_P1;PMS_P2;Temp;Humidity;BMP_temperature;BMP_pressure;BME280_temperature;BME280_humidity;BME280_pressure;Samples;Min_cycle;Max_cycle;Signal;HPM_P1;HPM_P2
2023/05/28 02:01:27;;;;;;;3.80;1.37;;;;;;;;;;4747333;27;20074;-74
2023/05/28 02:03:54;;;;;;;11.40;1.70;;;;;;;;;;4312645;33;20390;-75
2023/05/28 02:06:21;;;;;;;3.03;1.62;;;;;;;;;;4312605;33;20456;-76
2023/05/28 02:08:47;;;;;;;7.22;1.80;;;;;;;;;;4293458;33;20539;-73
2023/05/28 02:11:13;;;;;;;3.37;1.35;;;;;;;;;;4296052;33;20052;-74
2023/05/28 02:13:40;;;;;;;1.10;1.10;;;;;;;;;;4295500;33;20053;-76
2023/05/28 02:16:07;;;;;;;3.25;1.30;;;;;;;;;;4296194;33;20044;-75
2023/05/28 02:18:36;;;;;;;2.15;1.50;;;;;;;;;;4294620;33;20033;-73
2023/05/28 02:21:09;;;;;;;2.17;1.50;;;;;;;;;;4295973;33;20078;-74
2023/05/28 02:23:46;;;;;;;3.05;1.77;;;;;;;;;;4296257;33;20108;-75
2023/05/28 02:26:16;;;;;;;2.97;1.75;;;;;;;;;;4295747;33;20029;-75
2023/05/28 02:28:43;;;;;;;5.85;1.25;;;;;;;;;;4293743;33;20041;-75
2023/05/28 02:31:10;;;;;;;3.55;1.70;;;;;;;;;;4295705;33;20102;-75
2023/05/28 02:33:39;;;;;;;2.30;1.55;;;;;;;;;;4265264;33;20064;-75
2023/05/28 02:36:07;;;;;;;2.20;1.30;;;;;;;;;;4266693;33;20377;-76
2023/05/28 02:38:34;;;;;;;7.82;1.37;;;;;;;;;;4263306;33;20065;-75
2023/05/28 02:41:02;;;;;;;2.15;1.30;;;;;;;;;;4267106;33;20045;-76
2023/05/28 02:43:29;;;;;;;4.03;1.50;;;;;;;;;;4266824;33;20387;-75
2023/05/28 02:45:55;;;;;;;4.70;1.50;;;;;;;;;;4271637;33;20053;-75
2023/05/28 02:48:24;;;;;;;2.37;1.48;;;;;;;;;;4279751;33;20545;-75
2023/05/28 02:50:51;;;;;;;3.42;1.60;;;;;;;;;;4280844;33;20610;-75
2023/05/28 02:53:21;;;;;;;2.58;1.58;;;;;;;;;;4267041;33;20038;-75
2023/05/28 02:55:48;;;;;;;4.00;1.30;;;;;;;;;;4266222;33;20071;-76
2023/05/28 02:58:15;;;;;;;5.75;2.28;;;;;;;;;;4266521;33;20079;-72
2023/05/28 03:00:41;;;;;;;4.57;1.67;;;;;;;;;;4237494;33;20034;-75
2023/05/28 03:03:09;;;;;;;6.85;1.60;;;;;;;;;;4237473;33;20288;-76
2023/05/28 03:08:09;;;;;;;8.35;2.17;;;;;;;;;;4266271;33;20049;-75
2023/05/28 03:10:37;;;;;;;2.92;1.70;;;;;;;;;;4265263;33;20219;-75
2023/05/28 03:13:04;;;;;;;2.25;1.27;;;;;;;;;;4265674;33;20054;-76
2023/05/28 03:15:31;;;;;;;9.10;1.83;;;;;;;;;;4265434;33;20027;-76
2023/05/28 03:17:57;;;;;;;2.33;1.55;;;;;;;;;;4265581;33;20097;-75
2023/05/28 03:20:24;;;;;;;3.15;1.45;;;;;;;;;;4264008;33;20444;-76
2023/05/28 03:22:59;;;;;;;7.53;2.78;;;;;;;;;;4266754;33;20406;-76
2023/05/28 03:25:26;;;;;;;8.98;1.42;;;;;;;;;;4264448;33;20064;-76
2023/05/28 03:27:53;;;;;;;5.68;2.37;;;;;;;;;;4266551;33;20068;-76
2023/05/28 03:30:23;;;;;;;4.22;1.35;;;;;;;;;;4264386;33;20033;-76
2023/05/28 03:32:51;;;;;;;2.60;1.60;;;;;;;;;;4280145;33;20058;-75
2023/05/28 03:35:19;;;;;;;2.90;1.40;;;;;;;;;;4280145;33;20412;-75
2023/05/28 03:37:45;;;;;;;1.95;1.40;;;;;;;;;;4280340;33;20451;-76
2023/05/28 03:40:12;;;;;;;5.55;1.35;;;;;;;;;;4277472;33;20132;-74
2023/05/28 03:42:38;;;;;;;6.80;1.85;;;;;;;;;;4280455;33;20963;-76
2023/05/28 03:45:06;;;;;;;3.33;1.65;;;;;;;;;;4264981;33;20038;-75
2023/05/28 03:47:33;;;;;;;9.63;1.48;;;;;;;;;;4266164;33;20058;-75
2023/05/28 03:49:59;;;;;;;2.75;1.17;;;;;;;;;;4266256;33;20061;-76
2023/05/28 03:52:27;;;;;;;1.30;1.00;;;;;;;;;;4264414;33;20060;-72
2023/05/28 03:54:53;;;;;;;5.22;1.12;;;;;;;;;;4262221;33;20970;-76
2023/05/28 03:57:19;;;;;;;3.12;1.70;;;;;;;;;;4288317;33;20037;-76
2023/05/28 03:59:45;;;;;;;3.60;1.33;;;;;;;;;;4297840;33;20067;-75
2023/05/28 04:02:12;;;;;;;8.18;1.75;;;;;;;;;;4296353;33;20057;-76
2023/05/28 04:04:38;;;;;;;6.03;1.08;;;;;;;;;;4296497;33;20056;-71
2023/05/28 04:07:04;;;;;;;2.95;1.33;;;;;;;;;;4297210;33;20033;-76
2023/05/28 04:09:31;;;;;;;2.05;1.27;;;;;;;;;;4297157;33;20049;-75
2023/05/28 04:11:58;;;;;;;4.28;1.25;;;;;;;;;;4297873;33;20067;-76
2023/05/28 04:14:26;;;;;;;2.87;1.50;;;;;;;;;;4297947;33;20041;-76
2023/05/28 04:16:53;;;;;;;4.50;1.55;;;;;;;;;;4297273;33;20033;-73
2023/05/28 04:19:19;;;;;;;2.72;1.30;;;;;;;;;;4295996;33;20066;-74
2023/05/28 04:21:47;;;;;;;1.27;1.12;;;;;;;;;;4300097;33;20053;-74
2023/05/28 04:24:13;;;;;;;3.42;1.30;;;;;;;;;;4314533;33;20051;-74
2023/05/28 04:26:39;;;;;;;3.87;1.20;;;;;;;;;;4312843;33;20070;-72
2023/05/28 04:29:06;;;;;;;3.30;1.33;;;;;;;;;;4313153;33;20063;-70
2023/05/28 04:31:32;;;;;;;2.33;1.33;;;;;;;;;;4296796;33;20073;-73
2023/05/28 04:34:00;;;;;;;3.17;1.15;;;;;;;;;;4297557;33;20045;-73
2023/05/28 04:36:29;;;;;;;2.45;1.35;;;;;;;;;;4297311;33;20386;-74
2023/05/28 04:38:56;;;;;;;1.37;1.27;;;;;;;;;;4295882;33;20469;-74
2023/05/28 04:41:23;;;;;;;1.73;1.17;;;;;;;;;;4280173;33;20054;-70
2023/05/28 04:43:49;;;;;;;7.53;1.75;;;;;;;;;;4282258;33;20394;-74
2023/05/28 04:46:16;;;;;;;3.10;1.45;;;;;;;;;;4282483;33;20053;-74
2023/05/28 04:48:42;;;;;;;4.53;1.12;;;;;;;;;;4282440;33;20090;-74
2023/05/28 04:51:09;;;;;;;5.32;1.05;;;;;;;;;;4281311;33;20042;-73
2023/05/28 04:53:35;;;;;;;3.20;1.40;;;;;;;;;;4281306;33;20423;-71
2023/05/28 04:56:03;;;;;;;11.00;1.58;;;;;;;;;;4269101;33;21090;-73
2023/05/28 04:58:29;;;;;;;5.18;1.75;;;;;;;;;;4267428;33;20038;-74
2023/05/28 05:00:56;;;;;;;3.30;1.12;;;;;;;;;;4268157;33;20439;-73
2023/05/28 05:03:22;;;;;;;2.37;1.25;;;;;;;;;;4268099;33;20041;-73
2023/05/28 05:05:48;;;;;;;4.05;2.12;;;;;;;;;;4267872;33;20061;-73
2023/05/28 05:08:14;;;;;;;3.15;1.12;;;;;;;;;;4266774;33;20064;-73
2023/05/28 05:10:42;;;;;;;1.20;1.02;;;;;;;;;;4278239;33;20099;-73
2023/05/28 05:13:08;;;;;;;7.00;1.45;;;;;;;;;;4282345;33;20037;-73
2023/05/28 05:15:34;;;;;;;1.35;1.25;;;;;;;;;;4280628;33;20041;-72
2023/05/28 05:18:01;;;;;;;4.32;1.12;;;;;;;;;;4282574;33;20033;-74
2023/05/28 05:20:27;;;;;;;4.22;1.33;;;;;;;;;;4280712;33;20107;-74
2023/05/28 05:22:53;;;;;;;8.65;1.92;;;;;;;;;;4282143;33;20444;-74
2023/05/28 05:25:19;;;;;;;1.73;1.05;;;;;;;;;;4293765;33;20049;-74
2023/05/28 05:27:50;;;;;;;2.83;1.15;;;;;;;;;;4296877;33;20077;-74
2023/05/28 05:30:17;;;;;;;6.03;1.25;;;;;;;;;;4305275;33;20059;-74
2023/05/28 05:32:43;;;;;;;4.45;1.20;;;;;;;;;;4311014;33;20078;-74
2023/05/28 05:35:09;;;;;;;10.05;2.33;;;;;;;;;;4311032;33;20446;-74
2023/05/28 05:37:37;;;;;;;1.10;1.00;;;;;;;;;;4296125;33;20116;-74
2023/05/28 05:40:05;;;;;;;10.85;1.58;;;;;;;;;;4294323;33;20496;-74
2023/05/28 05:42:31;;;;;;;2.20;1.17;;;;;;;;;;4295493;33;20424;-73
2023/05/28 05:44:58;;;;;;;2.10;1.20;;;;;;;;;;4282251;33;20067;-75
2023/05/28 05:47:24;;;;;;;3.28;1.70;;;;;;;;;;4281884;33;20367;-74
2023/05/28 05:49:53;;;;;;;10.75;1.20;;;;;;;;;;4280736;33;20042;-73
2023/05/28 05:52:19;;;;;;;3.90;1.12;;;;;;;;;;4265330;33;20117;-73
2023/05/28 05:54:47;;;;;;;3.47;1.15;;;;;;;;;;4267690;33;20079;-73
2023/05/28 05:57:14;;;;;;;2.55;1.50;;;;;;;;;;4267523;33;20026;-74
2023/05/28 05:59:40;;;;;;;1.60;1.10;;;;;;;;;;4267407;33;20064;-75
2023/05/28 06:02:07;;;;;;;1.75;1.55;;;;;;;;;;4265144;33;20115;-71
2023/05/28 06:04:33;;;;;;;7.60;1.48;;;;;;;;;;4266167;33;20042;-74
2023/05/28 06:07:04;;;;;;;3.03;1.30;;;;;;;;;;4252923;33;20490;-74
2023/05/28 06:09:31;;;;;;;4.70;1.62;;;;;;;;;;4253556;33;20076;-74
2023/05/28 06:11:57;;;;;;;6.30;1.45;;;;;;;;;;4251872;33;20460;-74
2023/05/28 06:14:29;;;;;;;2.05;1.37;;;;;;;;;;4252236;33;20058;-74
2023/05/28 06:16:56;;;;;;;2.25;1.02;;;;;;;;;;4264382;33;20059;-74
2023/05/28 06:19:22;;;;;;;5.35;1.75;;;;;;;;;;4279959;33;20361;-74
2023/05/28 06:21:48;;;;;;;6.30;1.70;;;;;;;;;;4280501;33;20123;-73
2023/05/28 06:24:15;;;;;;;8.25;1.20;;;;;;;;;;4281525;33;20438;-73
2023/05/28 06:26:44;;;;;;;4.05;1.42;;;;;;;;;;4277910;33;20152;-74
2023/05/28 06:29:10;;;;;;;2.40;1.52;;;;;;;;;;4280857;33;20083;-73
2023/05/28 06:31:36;;;;;;;6.55;1.33;;;;;;;;;;4281109;33;20067;-72
2023/05/28 06:34:03;;;;;;;2.45;1.58;;;;;;;;;;4291337;33;20038;-74
2023/05/28 06:36:29;;;;;;;6.03;1.58;;;;;;;;;;4278325;33;20049;-71
2023/05/28 06:38:55;;;;;;;4.78;1.45;;;;;;;;;;4285719;33;20058;-73
2023/05/28 06:41:22;;;;;;;12.37;2.15;;;;;;;;;;4281017;33;20370;-73
2023/05/28 06:43:50;;;;;;;6.12;1.55;;;;;;;;;;4280158;33;20095;-72
2023/05/28 06:46:16;;;;;;;1.85;1.10;;;;;;;;;;4280911;33;20049;-73
2023/05/28 06:48:43;;;;;;;2.55;1.40;;;;;;;;;;4280066;33;20060;-70
2023/05/28 06:51:09;;;;;;;20.60;1.90;;;;;;;;;;4279420;33;20056;-73
2023/05/28 06:53:35;;;;;;;5.12;1.48;;;;;;;;;;4280454;33;20099;-73
2023/05/28 06:56:01;;;;;;;6.55;1.15;;;;;;;;;;4305916;33;20630;-73
2023/05/28 06:58:32;;;;;;;8.20;1.30;;;;;;;;;;4312296;33;20049;-72
2023/05/28 07:01:01;;;;;;;6.68;1.30;;;;;;;;;;4311011;33;20072;-70
2023/05/28 07:03:28;;;;;;;2.92;1.40;;;;;;;;;;4308707;33;20066;-71
2023/05/28 07:05:56;;;;;;;4.97;1.02;;;;;;;;;;4309173;33;20058;-73
2023/05/28 07:08:22;;;;;;;5.43;1.12;;;;;;;;;;4310296;33;20076;-73
2023/05/28 07:10:48;;;;;;;3.80;1.12;;;;;;;;;;4310884;33;20049;-73
2023/05/28 07:13:16;;;;;;;6.72;1.30;;;;;;;;;;4305045;33;20041;-71
2023/05/28 07:15:42;;;;;;;2.10;1.02;;;;;;;;;;4308082;33;20446;-74
2023/05/28 07:18:08;;;;;;;5.55;1.17;;;;;;;;;;4306424;33;20057;-73
2023/05/28 07:20:34;;;;;;;3.75;1.25;;;;;;;;;;4307911;33;20074;-73
2023/05/28 07:23:01;;;;;;;1.95;1.35;;;;;;;;;;4306501;33;20041;-73
2023/05/28 07:25:27;;;;;;;5.22;0.82;;;;;;;;;;4306225;33;20441;-75
2023/05/28 07:27:53;;;;;;;6.18;1.05;;;;;;;;;;4307773;33;20061;-75
2023/05/28 07:30:20;;;;;;;0.90;0.90;;;;;;;;;;4305993;33;20068;-76
2023/05/28 07:32:47;;;;;;;2.50;0.90;;;;;;;;;;4307403;33;20045;-75
2023/05/28 07:35:13;;;;;;;3.95;0.82;;;;;;;;;;4294486;33;20508;-73
2023/05/28 07:37:39;;;;;;;5.95;0.90;;;;;;;;;;4292950;33;20072;-74
2023/05/28 07:40:06;;;;;;;3.00;1.45;;;;;;;;;;4294805;33;20029;-76
2023/05/28 07:42:34;;;;;;;1.25;0.75;;;;;;;;;;4294960;33;20402;-75
2023/05/28 07:45:00;;;;;;;5.53;1.52;;;;;;;;;;4283333;33;20033;-73
2023/05/28 07:47:33;;;;;;;1.23;0.75;;;;;;;;;;4278644;33;20071;-75
2023/05/28 07:50:00;;;;;;;0.88;0.88;;;;;;;;;;4279635;33;20331;-74
2023/05/28 07:52:29;;;;;;;2.42;0.90;;;;;;;;;;4280140;33;20067;-74
2023/05/28 07:55:03;;;;;;;2.33;0.98;;;;;;;;;;4278335;33;20061;-70
2023/05/28 07:57:29;;;;;;;0.75;0.75;;;;;;;;;;4275765;33;20069;-74
2023/05/28 07:59:56;;;;;;;2.65;1.15;;;;;;;;;;4275363;33;20041;-70
2023/05/28 08:02:23;;;;;;;5.95;1.20;;;;;;;;;;4274872;33;20429;-74
2023/05/28 08:04:51;;;;;;;1.55;1.05;;;;;;;;;;4262411;33;20441;-73
2023/05/28 08:07:17;;;;;;;4.55;1.33;;;;;;;;;;4250277;33;20216;-71
2023/05/28 08:09:43;;;;;;;1.85;0.80;;;;;;;;;;4243003;33;20042;-74
2023/05/28 08:12:10;;;;;;;1.80;1.25;;;;;;;;;;4247947;33;20061;-74
2023/05/28 08:14:36;;;;;;;6.85;1.00;;;;;;;;;;4253629;33;20054;-74
2023/05/28 08:17:03;;;;;;;2.20;0.70;;;;;;;;;;4257693;33;20064;-74
2023/05/28 08:19:30;;;;;;;6.32;0.82;;;;;;;;;;4250734;33;20409;-73
2023/05/28 08:21:58;;;;;;;4.87;0.90;;;;;;;;;;4251440;33;20092;-75
2023/05/28 08:24:27;;;;;;;4.28;1.23;;;;;;;;;;4253073;33;20526;-74
2023/05/28 08:26:53;;;;;;;2.42;1.00;;;;;;;;;;4257316;33;20464;-75
2023/05/28 08:29:21;;;;;;;14.90;1.52;;;;;;;;;;4248312;33;20034;-74
2023/05/28 08:31:48;;;;;;;4.40;1.00;;;;;;;;;;4259437;33;20132;-74
2023/05/28 08:34:15;;;;;;;4.57;0.70;;;;;;;;;;4256258;33;20034;-74
2023/05/28 08:36:42;;;;;;;0.70;0.70;;;;;;;;;;4253824;33;20046;-74
2023/05/28 08:39:16;;;;;;;3.30;0.80;;;;;;;;;;4251215;33;20038;-74
2023/05/28 08:41:45;;;;;;;5.68;0.90;;;;;;;;;;4257003;33;20071;-75
2023/05/28 08:44:12;;;;;;;3.22;0.80;;;;;;;;;;4277429;33;20049;-75
2023/05/28 08:46:38;;;;;;;2.08;1.15;;;;;;;;;;4290870;33;20045;-75
2023/05/28 08:49:08;;;;;;;1.30;1.08;;;;;;;;;;4294725;33;20067;-75
2023/05/28 08:51:36;;;;;;;10.93;1.00;;;;;;;;;;4279170;33;20045;-76
2023/05/28 08:54:02;;;;;;;4.57;0.73;;;;;;;;;;4268401;33;20392;-75
2023/05/28 08:56:29;;;;;;;7.00;0.82;;;;;;;;;;4268324;33;20046;-75
2023/05/28 08:58:55;;;;;;;12.70;1.23;;;;;;;;;;4269970;33;20059;-75
2023/05/28 09:01:22;;;;;;;2.50;0.98;;;;;;;;;;4265842;33;20042;-74
2023/05/28 09:03:49;;;;;;;2.92;0.77;;;;;;;;;;4249049;33;20475;-73
2023/05/28 09:06:16;;;;;;;4.18;0.80;;;;;;;;;;4240780;33;20064;-74
2023/05/28 09:08:46;;;;;;;0.77;0.77;;;;;;;;;;4240983;33;20042;-74
2023/05/28 09:11:14;;;;;;;2.83;0.82;;;;;;;;;;4242792;33;20058;-74
2023/05/28 09:13:43;;;;;;;6.15;1.23;;;;;;;;;;4237559;33;20124;-74
2023/05/28 09:16:10;;;;;;;3.10;0.90;;;;;;;;;;4239245;33;20050;-74
2023/05/28 09:18:36;;;;;;;2.33;0.95;;;;;;;;;;4238733;33;20080;-74
2023/05/28 09:21:10;;;;;;;4.70;1.17;;;;;;;;;;4238334;33;20056;-75
2023/05/28 09:23:40;;;;;;;3.83;0.90;;;;;;;;;;4252206;33;20068;-72
2023/05/28 09:26:19;;;;;;;1.35;1.00;;;;;;;;;;4258648;33;20058;-74
2023/05/28 09:28:46;;;;;;;3.72;1.00;;;;;;;;;;4267741;33;20135;-74
2023/05/28 09:31:14;;;;;;;6.20;1.20;;;;;;;;;;4266503;33;20087;-74
2023/05/28 09:33:47;;;;;;;18.87;1.55;;;;;;;;;;4263838;33;20353;-73
2023/05/28 09:36:17;;;;;;;4.93;1.25;;;;;;;;;;4312705;33;20068;-74
2023/05/28 09:38:43;;;;;;;10.98;1.10;;;;;;;;;;4313367;33;20386;-73
2023/05/28 09:41:22;;;;;;;6.15;0.98;;;;;;;;;;4281534;33;20045;-73
2023/05/28 09:43:57;;;;;;;4.00;1.10;;;;;;;;;;4272937;33;20295;-73
2023/05/28 09:46:27;;;;;;;4.00;1.05;;;;;;;;;;4277874;33;20045;-73
2023/05/28 09:48:53;;;;;;;4.87;0.90;;;;;;;;;;4281730;33;20049;-71
2023/05/28 09:51:20;;;;;;;5.37;1.05;;;;;;;;;;4279732;33;20066;-74
2023/05/28 09:53:49;;;;;;;3.78;1.33;;;;;;;;;;4281669;33;20227;-73
2023/05/28 09:56:15;;;;;;;3.70;0.65;;;;;;;;;;4281359;33;20045;-74
2023/05/28 09:58:44;;;;;;;4.93;0.82;;;;;;;;;;4281244;33;20436;-73
2023/05/28 10:01:13;;;;;;;8.07;1.10;;;;;;;;;;4279016;33;20458;-70
2023/05/28 10:03:43;;;;;;;1.80;1.70;;;;;;;;;;4281106;33;20041;-74
2023/05/28 10:06:11;;;;;;;1.73;1.10;;;;;;;;;;4281084;33;20163;-74
2023/05/28 10:08:38;;;;;;;5.43;1.08;;;;;;;;;;4281602;33;20089;-74
2023/05/28 10:11:09;;;;;;;1.30;1.20;;;;;;;;;;4281086;33;20068;-73
2023/05/28 10:13:35;;;;;;;1.15;1.02;;;;;;;;;;4295238;33;20059;-75
2023/05/28 10:16:02;;;;;;;4.15;1.08;;;;;;;;;;4305798;33;20212;-75
2023/05/28 10:18:28;;;;;;;5.95;0.98;;;;;;;;;;4299869;33;20045;-74
2023/05/28 10:20:56;;;;;;;1.62;0.90;;;;;;;;;;4292116;33;20071;-73
2023/05/28 10:23:22;;;;;;;8.23;1.10;;;;;;;;;;4286928;33;20038;-73
2023/05/28 10:25:49;;;;;;;5.00;1.30;;;;;;;;;;4280947;33;20952;-74
2023/05/28 10:28:16;;;;;;;2.28;0.90;;;;;;;;;;4281424;33;20038;-75
2023/05/28 10:30:42;;;;;;;6.87;2.55;;;;;;;;;;4280952;33;20046;-73
2023/05/28 10:33:11;;;;;;;1.05;0.90;;;;;;;;;;4280972;33;20057;-74
2023/05/28 10:35:49;;;;;;;4.12;0.93;;;;;;;;;;4278112;33;20039;-74
2023/05/28 10:38:16;;;;;;;3.67;1.12;;;;;;;;;;4268103;33;20124;-74
2023/05/28 10:40:42;;;;;;;1.00;1.00;;;;;;;;;;4280924;33;20119;-74
2023/05/28 10:43:31;;;;;;;3.92;0.90;;;;;;;;;;4268077;33;20137;-70
2023/05/28 10:45:57;;;;;;;0.90;0.85;;;;;;;;;;4261241;33;20119;-73
2023/05/28 10:48:23;;;;;;;1.52;0.98;;;;;;;;;;4264415;33;20844;-75
2023/05/28 10:50:56;;;;;;;1.58;0.98;;;;;;;;;;4265476;33;20068;-74
2023/05/28 10:53:23;;;;;;;1.67;0.90;;;;;;;;;;4250029;33;20038;-74
2023/05/28 10:55:50;;;;;;;4.18;0.88;;;;;;;;;;4252121;33;20495;-73
2023/05/28 10:58:26;;;;;;;4.72;1.00;;;;;;;;;;4250842;33;20050;-73
2023/05/28 11:01:05;;;;;;;6.70;1.17;;;;;;;;;;4392406;28;20089;-72
2023/05/28 11:03:42;;;;;;;1.55;1.02;;;;;;;;;;4236156;33;20190;-73
2023/05/28 11:06:10;;;;;;;1.95;1.00;;;;;;;;;;4239207;33;20515;-76
2023/05/28 11:08:43;;;;;;;3.37;1.02;;;;;;;;;;4246035;33;20046;-76
2023/05/28 11:11:11;;;;;;;7.62;1.12;;;;;;;;;;4264316;33;20053;-75
2023/05/28 11:13:37;;;;;;;3.37;1.00;;;;;;;;;;4255248;33;20071;-74
2023/05/28 11:16:11;;;;;;;1.65;1.00;;;;;;;;;;4258342;33;20170;-74
2023/05/28 11:18:37;;;;;;;1.23;1.17;;;;;;;;;;4253904;33;20539;-71
2023/05/28 11:21:04;;;;;;;3.42;1.20;;;;;;;;;;4252161;33;20067;-75
2023/05/28 11:23:30;;;;;;;2.10;0.85;;;;;;;;;;4261443;33;20070;-74
2023/05/28 11:25:56;;;;;;;6.43;1.23;;;;;;;;;;4256535;33;20050;-74
2023/05/28 11:28:22;;;;;;;2.67;1.08;;;;;;;;;;4259095;33;20042;-75
2023/05/28 11:30:50;;;;;;;2.75;1.00;;;;;;;;;;4256041;33;20105;-71
2023/05/28 11:33:17;;;;;;;3.37;1.30;;;;;;;;;;4247057;33;20043;-74
2023/05/28 11:35:43;;;;;;;5.25;1.10;;;;;;;;;;4250768;33;20507;-74
2023/05/28 11:38:09;;;;;;;2.40;0.90;;;;;;;;;;4225701;33;20074;-73
2023/05/28 11:40:36;;;;;;;2.15;1.02;;;;;;;;;;4223371;33;20139;-73
2023/05/28 11:43:04;;;;;;;5.25;0.93;;;;;;;;;;4219766;33;20039;-70
2023/05/28 11:45:36;;;;;;;7.47;1.30;;;;;;;;;;4245721;33;20080;-73
2023/05/28 11:48:02;;;;;;;5.93;1.15;;;;;;;;;;4248870;33;20076;-73
2023/05/28 11:50:28;;;;;;;8.45;1.55;;;;;;;;;;4250236;33;20084;-74
2023/05/28 11:52:55;;;;;;;1.98;1.77;;;;;;;;;;4251425;33;20060;-71
2023/05/28 11:55:21;;;;;;;4.75;1.17;;;;;;;;;;4249668;33;20060;-74
2023/05/28 11:57:56;;;;;;;1.30;1.23;;;;;;;;;;4262481;33;20038;-73
2023/05/28 12:00:31;;;;;;;10.55;1.20;;;;;;;;;;4264664;33;20111;-73
2023/05/28 12:02:59;;;;;;;0.93;0.93;;;;;;;;;;4262762;33;20101;-71
2023/05/28 12:05:25;;;;;;;1.08;1.08;;;;;;;;;;4265495;33;20757;-73
2023/05/28 12:07:52;;;;;;;5.35;1.27;;;;;;;;;;4265586;33;20072;-74
2023/05/28 12:10:22;;;;;;;1.37;1.00;;;;;;;;;;4246288;33;20077;-74
2023/05/28 12:12:50;;;;;;;1.45;1.35;;;;;;;;;;4237191;33;20105;-74
2023/05/28 12:15:17;;;;;;;1.52;1.02;;;;;;;;;;4235669;33;20065;-74
2023/05/28 12:17:46;;;;;;;6.60;1.55;;;;;;;;;;4237435;33;20459;-74
2023/05/28 12:20:12;;;;;;;1.85;1.02;;;;;;;;;;4239154;33;20054;-74
2023/05/28 12:22:41;;;;;;;1.50;0.93;;;;;;;;;;4237656;33;20054;-75
2023/05/28 12:25:08;;;;;;;1.12;1.12;;;;;;;;;;4251227;33;20518;-72
2023/05/28 12:27:35;;;;;;;9.23;1.20;;;;;;;;;;4254089;33;20713;-75
2023/05/28 12:30:02;;;;;;;9.85;1.60;;;;;;;;;;4253961;33;20045;-74
2023/05/28 12:32:28;;;;;;;8.50;1.42;;;;;;;;;;4253892;33;20437;-74
2023/05/28 12:34:56;;;;;;;12.13;1.70;;;;;;;;;;4251803;33;20068;-73
2023/05/28 12:37:23;;;;;;;2.67;1.40;;;;;;;;;;4251406;33;20095;-73
2023/05/28 12:39:50;;;;;;;6.30;1.12;;;;;;;;;;4252830;33;20079;-73
2023/05/28 12:42:16;;;;;;;3.22;1.67;;;;;;;;;;4292949;33;20037;-73
2023/05/28 12:44:42;;;;;;;1.12;1.12;;;;;;;;;;4299023;33;20057;-73
2023/05/28 12:47:09;;;;;;;5.12;1.23;;;;;;;;;;4299370;33;20409;-73
2023/05/28 12:49:35;;;;;;;3.37;1.27;;;;;;;;;;4297080;33;20083;-73
2023/05/28 12:52:01;;;;;;;3.37;1.67;;;;;;;;;;4296480;33;20041;-74
2023/05/28 12:54:28;;;;;;;2.30;1.65;;;;;;;;;;4296504;33;20060;-75
2023/05/28 12:56:54;;;;;;;4.68;1.20;;;;;;;;;;4296360;33;20092;-76
2023/05/28 12:59:21;;;;;;;1.85;1.20;;;;;;;;;;4294028;33;20938;-74
2023/05/28 13:01:48;;;;;;;2.85;1.15;;;;;;;;;;4294779;33;20092;-75
2023/05/28 13:04:15;;;;;;;7.43;1.25;;;;;;;;;;4295054;33;20516;-74
2023/05/28 13:06:41;;;;;;;6.72;1.20;;;;;;;;;;4295992;33;20116;-76
2023/05/28 13:09:15;;;;;;;2.37;1.15;;;;;;;;;;4296329;33;20029;-76
2023/05/28 13:11:41;;;;;;;2.47;1.00;;;;;;;;;;4293729;33;20062;-75
2023/05/28 13:14:09;;;;;;;1.52;1.23;;;;;;;;;;4298918;33;20082;-74
2023/05/28 13:16:35;;;;;;;1.08;1.02;;;;;;;;;;4296142;33;20360;-73
2023/05/28 13:19:01;;;;;;;3.20;0.95;;;;;;;;;;4294779;33;20071;-74
2023/05/28 13:21:35;;;;;;;3.03;1.90;;;;;;;;;;4281950;33;20130;-74
2023/05/28 13:24:02;;;;;;;10.57;1.30;;;;;;;;;;4279556;33;20050;-75
2023/05/28 13:26:29;;;;;;;1.33;1.17;;;;;;;;;;4281524;33;20135;-73
2023/05/28 13:28:55;;;;;;;1.80;1.10;;;;;;;;;;4280365;33;20055;-75
2023/05/28 13:31:21;;;;;;;5.82;1.37;;;;;;;;;;4279066;33;20093;-74
2023/05/28 13:33:48;;;;;;;4.65;2.22;;;;;;;;;;4279873;33;20080;-75
2023/05/28 13:36:14;;;;;;;0.93;0.93;;;;;;;;;;4281041;33;20079;-74
2023/05/28 13:38:43;;;;;;;1.15;1.08;;;;;;;;;;4283506;33;20053;-74
2023/05/28 13:41:11;;;;;;;6.37;1.20;;;;;;;;;;4281244;33;20071;-73
2023/05/28 13:43:38;;;;;;;5.43;1.35;;;;;;;;;;4278812;33;20094;-73
2023/05/28 13:46:04;;;;;;;1.50;1.05;;;;;;;;;;4283131;33;20411;-75
2023/05/28 13:48:31;;;;;;;6.07;1.60;;;;;;;;;;4296305;33;20083;-73
2023/05/28 13:50:57;;;;;;;2.20;1.40;;;;;;;;;;4297486;33;20051;-75
2023/05/28 13:53:24;;;;;;;12.52;1.20;;;;;;;;;;4296809;33;20046;-71
2023/05/28 13:55:50;;;;;;;3.72;1.20;;;;;;;;;;4295683;33;20049;-75
2023/05/28 13:58:16;;;;;;;7.57;1.30;;;;;;;;;;4295834;33;20071;-73
2023/05/28 14:00:42;;;;;;;6.00;1.10;;;;;;;;;;4295600;33;20041;-73
2023/05/28 14:03:13;;;;;;;5.35;1.40;;;;;;;;;;4298414;33;20517;-74
2023/05/28 14:05:39;;;;;;;4.32;1.60;;;;;;;;;;4296828;33;20421;-71
2023/05/28 14:08:06;;;;;;;1.10;1.00;;;;;;;;;;4296346;33;20037;-74
2023/05/28 14:10:32;;;;;;;1.02;1.00;;;;;;;;;;4296902;33;20119;-73
2023/05/28 14:12:59;;;;;;;1.65;1.00;;;;;;;;;;4297467;33;20782;-73
2023/05/28 14:15:25;;;;;;;4.65;1.52;;;;;;;;;;4297336;33;20081;-73
2023/05/28 14:17:51;;;;;;;10.80;2.35;;;;;;;;;;4294216;33;20061;-72
2023/05/28 14:20:17;;;;;;;4.28;1.45;;;;;;;;;;4295760;33;20159;-73
2023/05/28 14:22:44;;;;;;;10.35;1.90;;;;;;;;;;4295282;33;20050;-72
2023/05/28 14:25:10;;;;;;;0.95;0.95;;;;;;;;;;4295669;33;20069;-72
2023/05/28 14:27:37;;;;;;;5.25;1.10;;;;;;;;;;4296865;33;20366;-75
2023/05/28 14:30:03;;;;;;;2.45;1.33;;;;;;;;;;4295620;33;20037;-76
2023/05/28 14:32:30;;;;;;;1.70;1.42;;;;;;;;;;4297337;33;20112;-73
2023/05/28 14:34:57;;;;;;;1.85;1.10;;;;;;;;;;4297816;33;20063;-75
2023/05/28 14:37:23;;;;;;;4.53;1.77;;;;;;;;;;4296714;33;20041;-74
2023/05/28 14:39:49;;;;;;;1.30;1.20;;;;;;;;;;4297718;33;20075;-70
2023/05/28 14:42:16;;;;;;;1.60;1.33;;;;;;;;;;4295967;33;20045;-72
2023/05/28 14:44:41;;;;;;;1.30;1.00;;;;;;;;;;4280751;33;20204;-73
2023/05/28 14:47:08;;;;;;;7.82;1.42;;;;;;;;;;4280542;33;20081;-74
2023/05/28 14:49:34;;;;;;;2.03;1.20;;;;;;;;;;4280430;33;20056;-75
2023/05/28 14:52:20;;;;;;;4.50;1.30;;;;;;;;;;4280284;33;20055;-73
2023/05/28 14:54:52;;;;;;;4.95;1.73;;;;;;;;;;4280795;33;20053;-74
2023/05/28 14:57:19;;;;;;;9.65;1.50;;;;;;;;;;4278712;33;20042;-73
2023/05/28 14:59:45;;;;;;;2.65;1.33;;;;;;;;;;4280417;33;20469;-73
2023/05/28 15:02:12;;;;;;;6.93;1.12;;;;;;;;;;4261114;33;20050;-71
2023/05/28 15:04:38;;;;;;;1.85;1.00;;;;;;;;;;4263801;33;21040;-73
2023/05/28 15:07:05;;;;;;;11.95;1.62;;;;;;;;;;4263451;33;20518;-73
2023/05/28 15:09:31;;;;;;;3.28;2.08;;;;;;;;;;4262947;33;20178;-74
2023/05/28 15:11:57;;;;;;;3.80;1.40;;;;;;;;;;4262985;33;20545;-72
2023/05/28 15:14:25;;;;;;;4.95;1.42;;;;;;;;;;4261853;33;20046;-74
2023/05/28 15:16:52;;;;;;;5.25;1.20;;;;;;;;;;4266293;33;20085;-74
2023/05/28 15:19:18;;;;;;;2.53;1.40;;;;;;;;;;4264483;33;20523;-71
2023/05/28 15:21:44;;;;;;;19.23;1.62;;;;;;;;;;4265309;33;20387;-73
2023/05/28 15:24:10;;;;;;;1.70;1.60;;;;;;;;;;4264818;33;20395;-73
2023/05/28 15:26:37;;;;;;;1.40;1.30;;;;;;;;;;4263264;33;20077;-73
2023/05/28 15:29:03;;;;;;;1.30;1.20;;;;;;;;;;4262525;33;20072;-72
2023/05/28 15:31:29;;;;;;;3.30;1.10;;;;;;;;;;4238996;33;20055;-75
2023/05/28 15:33:55;;;;;;;7.82;1.40;;;;;;;;;;4261387;33;20101;-74
2023/05/28 15:36:22;;;;;;;2.80;1.15;;;;;;;;;;4267218;33;20090;-72
2023/05/28 15:38:48;;;;;;;2.42;1.33;;;;;;;;;;4268284;33;20084;-75
2023/05/28 15:41:15;;;;;;;3.22;1.27;;;;;;;;;;4268135;33;20076;-76
2023/05/28 15:43:43;;;;;;;5.53;1.90;;;;;;;;;;4267961;33;20030;-76
2023/05/28 15:46:10;;;;;;;21.87;2.47;;;;;;;;;;4273206;33;20108;-76
2023/05/28 15:48:36;;;;;;;2.20;1.50;;;;;;;;;;4261230;33;20570;-72
2023/05/28 15:51:02;;;;;;;2.92;1.60;;;;;;;;;;4263235;33;20053;-77
2023/05/28 15:53:30;;;;;;;5.87;1.62;;;;;;;;;;4248579;33;20034;-74
2023/05/28 15:55:56;;;;;;;4.43;1.27;;;;;;;;;;4252073;33;20451;-73
2023/05/28 15:58:23;;;;;;;12.93;1.80;;;;;;;;;;4252422;33;20129;-71
2023/05/28 16:00:50;;;;;;;1.67;1.20;;;;;;;;;;4249497;33;20069;-74
2023/05/28 16:03:18;;;;;;;6.22;1.42;;;;;;;;;;4263472;33;20069;-76
2023/05/28 16:05:44;;;;;;;1.85;1.67;;;;;;;;;;4265759;33;20099;-75
2023/05/28 16:08:11;;;;;;;8.95;1.30;;;;;;;;;;4267133;33;20041;-76
2023/05/28 16:10:37;;;;;;;2.85;1.80;;;;;;;;;;4263023;33;20934;-74
2023/05/28 16:13:07;;;;;;;5.22;1.60;;;;;;;;;;4265411;33;20042;-75
2023/05/28 16:15:34;;;;;;;2.20;2.00;;;;;;;;;;4231892;33;20408;-75
2023/05/28 16:18:03;;;;;;;1.15;0.98;;;;;;;;;;4232443;33;20046;-74
2023/05/28 16:20:29;;;;;;;1.33;1.23;;;;;;;;;;4235871;33;20055;-75
2023/05/28 16:22:56;;;;;;;1.92;1.40;;;;;;;;;;4232160;33;20868;-75
2023/05/28 16:25:23;;;;;;;2.87;1.25;;;;;;;;;;4247831;33;20042;-74
2023/05/28 16:27:51;;;;;;;2.00;1.20;;;;;;;;;;4247763;33;20367;-75
2023/05/28 16:30:18;;;;;;;12.40;1.58;;;;;;;;;;4248441;33;20078;-75
2023/05/28 16:32:45;;;;;;;2.58;1.50;;;;;;;;;;4262153;33;20411;-72
2023/05/28 16:35:12;;;;;;;9.20;2.30;;;;;;;;;;4268393;33;20076;-74
2023/05/28 16:37:38;;;;;;;7.65;2.05;;;;;;;;;;4268516;33;20429;-77
2023/05/28 16:40:09;;;;;;;9.27;1.70;;;;;;;;;;4267838;33;20033;-74
2023/05/28 16:42:37;;;;;;;12.37;1.30;;;;;;;;;;4271085;33;20037;-72
2023/05/28 16:45:04;;;;;;;2.53;1.20;;;;;;;;;;4275833;33;20042;-74
2023/05/28 16:47:34;;;;;;;4.32;1.10;;;;;;;;;;4293913;33;20078;-74